Time;durP1;ratioP1;P1;durP2;ratioP2;P2;SDS_P1;SDS_P2;PMS_P1;PMS_P2;Temp;Humidity;BMP_temperature;BMP_pressure;BME280_temperature;BME280_humidity;BME280_pressure;Samples;Min_cycle;Max_cycle;Signal;HPM_P1;HPM_P2
2022/03/14 00:01:40;;;;;;;17.38;11.13;;;;;;;;;;5034854;28;20108;-71
2022/03/14 00:04:06;;;;;;;17.52;10.82;;;;;;;;;;5052756;28;20045;-71
2022/03/14 00:06:35;;;;;;;18.35;10.55;;;;;;;;;;5035540;28;20072;-72
2022/03/14 00:09:06;;;;;;;21.52;11.13;;;;;;;;;;5049031;28;20524;-71
2022/03/14 00:11:35;;;;;;;16.23;9.55;;;;;;;;;;5048102;28;20055;-71
2022/03/14 00:14:07;;;;;;;16.20;9.98;;;;;;;;;;5050505;28;20050;-72
2022/03/14 00:16:36;;;;;;;15.52;9.60;;;;;;;;;;5050532;28;20412;-72
2022/03/14 00:19:03;;;;;;;;;;;;;;;;;;5051744;28;20105;-71
2022/03/14 00:21:29;;;;;;;16.73;9.70;;;;;;;;;;5014959;28;19928;-71
2022/03/14 00:23:57;;;;;;;18.65;9.82;;;;;;;;;;5047681;28;20120;-72
2022/03/14 00:26:23;;;;;;;13.48;8.68;;;;;;;;;;5047759;28;20049;-71
2022/03/14 00:28:49;;;;;;;14.52;8.57;;;;;;;;;;5047714;28;20041;-71
2022/03/14 00:31:16;;;;;;;12.88;8.05;;;;;;;;;;5046837;28;20049;-71
2022/03/14 00:33:42;;;;;;;14.68;8.55;;;;;;;;;;5047665;28;20048;-71
2022/03/14 00:36:08;;;;;;;13.57;8.15;;;;;;;;;;5045531;28;20427;-72
2022/03/14 00:38:36;;;;;;;12.15;7.28;;;;;;;;;;5030182;28;20048;-72
2022/03/14 00:41:03;;;;;;;12.48;7.15;;;;;;;;;;5031558;28;20054;-72
2022/03/14 00:43:30;;;;;;;10.65;7.65;;;;;;;;;;5044757;28;20041;-71
2022/03/14 00:45:56;;;;;;;12.52;6.97;;;;;;;;;;5044156;28;20052;-71
2022/03/14 00:48:22;;;;;;;15.07;7.63;;;;;;;;;;5044042;28;20153;-71
2022/03/14 00:50:49;;;;;;;12.77;7.00;;;;;;;;;;5027510;28;20069;-71
2022/03/14 00:53:15;;;;;;;9.82;6.82;;;;;;;;;;5045870;28;20042;-71
2022/03/14 00:55:41;;;;;;;14.80;6.88;;;;;;;;;;5047217;28;20038;-71
2022/03/14 00:58:07;;;;;;;15.60;6.90;;;;;;;;;;5046791;28;20128;-73
2022/03/14 01:00:34;;;;;;;11.32;6.18;;;;;;;;;;5030830;28;20552;-71
2022/03/14 01:03:00;;;;;;;11.98;6.22;;;;;;;;;;5030745;28;20045;-71
2022/03/14 01:05:26;;;;;;;6.90;4.90;;;;;;;;;;5046430;28;20076;-70
2022/03/14 01:07:52;;;;;;;10.05;5.20;;;;;;;;;;5046418;28;20064;-71
2022/03/14 01:10:18;;;;;;;8.77;5.10;;;;;;;;;;5045957;28;20038;-70
2022/03/14 01:12:45;;;;;;;8.40;4.75;;;;;;;;;;5027373;28;20056;-70
2022/03/14 01:15:11;;;;;;;10.30;5.10;;;;;;;;;;5047702;28;20116;-71
2022/03/14 01:17:37;;;;;;;5.60;4.45;;;;;;;;;;5045898;28;20037;-71
2022/03/14 01:20:04;;;;;;;6.80;4.15;;;;;;;;;;5026859;28;20053;-71
2022/03/14 01:22:30;;;;;;;6.40;4.05;;;;;;;;;;5026808;28;20124;-72
2022/03/14 01:24:56;;;;;;;6.80;4.15;;;;;;;;;;5044211;28;20049;-70
2022/03/14 01:27:22;;;;;;;6.63;3.97;;;;;;;;;;5027992;28;20042;-71
2022/03/14 01:29:48;;;;;;;11.05;4.95;;;;;;;;;;5047007;28;20049;-72
2022/03/14 01:32:14;;;;;;;5.75;3.70;;;;;;;;;;5044028;28;20404;-71
2022/03/14 01:34:40;;;;;;;5.03;3.88;;;;;;;;;;5045007;28;20056;-71
2022/03/14 01:37:06;;;;;;;7.78;3.88;;;;;;;;;;5043833;28;20064;-71
2022/03/14 01:39:32;;;;;;;5.80;3.70;;;;;;;;;;5045239;28;20054;-72
2022/03/14 01:41:59;;;;;;;5.63;4.15;;;;;;;;;;5045325;28;20094;-72
2022/03/14 01:44:25;;;;;;;5.47;3.97;;;;;;;;;;5042019;28;20041;-72
2022/03/14 01:46:52;;;;;;;4.90;3.85;;;;;;;;;;5046984;28;20045;-71
2022/03/14 01:49:18;;;;;;;9.95;3.58;;;;;;;;;;5044086;28;20068;-71
2022/03/14 01:51:44;;;;;;;6.05;3.58;;;;;;;;;;5043552;28;20049;-72
2022/03/14 01:54:11;;;;;;;5.43;3.80;;;;;;;;;;5043422;28;20453;-72
2022/03/14 01:56:39;;;;;;;5.50;3.65;;;;;;;;;;5024035;28;20065;-71
2022/03/14 01:59:05;;;;;;;4.28;3.38;;;;;;;;;;5041504;28;20068;-71
2022/03/14 02:01:32;;;;;;;4.72;3.70;;;;;;;;;;5043043;28;20052;-72
2022/03/14 02:03:59;;;;;;;4.30;3.00;;;;;;;;;;5023782;28;20103;-71
2022/03/14 02:06:27;;;;;;;4.03;3.13;;;;;;;;;;5024368;28;20507;-70
2022/03/14 02:08:53;;;;;;;8.57;3.78;;;;;;;;;;5045514;28;20068;-71
2022/03/14 02:11:19;;;;;;;4.47;3.38;;;;;;;;;;5046202;28;20121;-72
2022/03/14 02:13:46;;;;;;;4.63;3.50;;;;;;;;;;5029501;28;20045;-71
2022/03/14 02:16:12;;;;;;;4.63;3.38;;;;;;;;;;5045797;28;20448;-71
2022/03/14 02:18:38;;;;;;;20.20;6.05;;;;;;;;;;5046640;28;20045;-71
2022/03/14 02:21:05;;;;;;;5.65;3.65;;;;;;;;;;5046355;28;20140;-71
2022/03/14 02:23:31;;;;;;;8.13;3.78;;;;;;;;;;5046451;28;20045;-72
2022/03/14 02:25:57;;;;;;;13.63;4.75;;;;;;;;;;5046694;28;20044;-71
2022/03/14 02:28:23;;;;;;;10.52;4.18;;;;;;;;;;5045412;28;20050;-71
2022/03/14 02:30:53;;;;;;;6.43;3.80;;;;;;;;;;5046680;28;20109;-71
2022/03/14 02:33:19;;;;;;;12.30;4.10;;;;;;;;;;5030294;28;20072;-70
2022/03/14 02:35:45;;;;;;;7.22;3.42;;;;;;;;;;5048711;28;20056;-71
2022/03/14 02:38:17;;;;;;;6.13;3.58;;;;;;;;;;5049113;28;20131;-71
2022/03/14 02:40:46;;;;;;;5.40;3.50;;;;;;;;;;5046935;28;20057;-71
2022/03/14 02:43:15;;;;;;;13.98;5.30;;;;;;;;;;5042010;28;20045;-71
2022/03/14 02:45:42;;;;;;;6.55;3.55;;;;;;;;;;5041713;28;20049;-70
2022/03/14 02:48:08;;;;;;;8.18;4.07;;;;;;;;;;5023468;28;20080;-71
2022/03/14 02:50:35;;;;;;;7.93;3.60;;;;;;;;;;5040770;28;20041;-71
2022/03/14 02:53:01;;;;;;;4.88;3.10;;;;;;;;;;5042171;28;20120;-71
2022/03/14 02:55:27;;;;;;;6.90;3.53;;;;;;;;;;5024848;28;20124;-71
2022/03/14 02:57:53;;;;;;;6.88;3.40;;;;;;;;;;5022728;28;20057;-71
2022/03/14 03:00:19;;;;;;;7.35;3.13;;;;;;;;;;5023451;28;20048;-71
2022/03/14 03:02:45;;;;;;;5.88;3.13;;;;;;;;;;5040212;28;20048;-71
2022/03/14 03:05:11;;;;;;;4.22;3.10;;;;;;;;;;5041275;28;20037;-72
2022/03/14 03:07:39;;;;;;;3.83;3.20;;;;;;;;;;5010020;28;20080;-71
2022/03/14 03:10:07;;;;;;;5.60;2.90;;;;;;;;;;5046316;28;20120;-71
2022/03/14 03:12:34;;;;;;;4.20;3.03;;;;;;;;;;5046208;28;20049;-70
2022/03/14 03:15:00;;;;;;;4.53;2.75;;;;;;;;;;5045268;28;20053;-70
2022/03/14 03:17:26;;;;;;;7.60;3.10;;;;;;;;;;5030021;28;20026;-72
2022/03/14 03:19:52;;;;;;;3.45;2.45;;;;;;;;;;5045567;28;20103;-71
2022/03/14 03:22:18;;;;;;;5.85;2.78;;;;;;;;;;5045857;28;20037;-71
2022/03/14 03:24:44;;;;;;;3.53;2.72;;;;;;;;;;5027657;28;20057;-71
2022/03/14 03:27:10;;;;;;;4.22;2.75;;;;;;;;;;5028186;28;20045;-71
2022/03/14 03:29:36;;;;;;;4.00;2.90;;;;;;;;;;5044097;28;20103;-71
2022/03/14 03:32:02;;;;;;;2.97;2.60;;;;;;;;;;5045350;28;20064;-71
2022/03/14 03:34:28;;;;;;;3.20;2.60;;;;;;;;;;5040929;28;20485;-72
2022/03/14 03:36:54;;;;;;;5.22;2.80;;;;;;;;;;5040090;28;20065;-70
2022/03/14 03:39:20;;;;;;;3.80;2.60;;;;;;;;;;5022062;28;20049;-71
2022/03/14 03:41:46;;;;;;;4.60;2.50;;;;;;;;;;5039736;28;20044;-71
2022/03/14 03:44:12;;;;;;;3.92;2.75;;;;;;;;;;5038930;28;20052;-71
2022/03/14 03:46:38;;;;;;;4.82;2.90;;;;;;;;;;5042111;28;20049;-71
2022/03/14 03:49:04;;;;;;;7.38;3.50;;;;;;;;;;5040964;28;20063;-70
2022/03/14 03:51:30;;;;;;;4.70;3.25;;;;;;;;;;5039180;28;20050;-70
2022/03/14 03:53:56;;;;;;;4.13;2.88;;;;;;;;;;5021597;28;20044;-70
2022/03/14 03:56:22;;;;;;;3.60;2.60;;;;;;;;;;5022246;28;20037;-71
2022/03/14 03:58:48;;;;;;;3.85;2.53;;;;;;;;;;5023286;28;20049;-70
2022/03/14 04:01:22;;;;;;;3.60;2.70;;;;;;;;;;5041267;28;20042;-71
2022/03/14 04:03:54;;;;;;;4.95;3.25;;;;;;;;;;5042204;28;20120;-71
2022/03/14 04:06:20;;;;;;;5.97;3.30;;;;;;;;;;5044189;28;20523;-71
2022/03/14 04:08:47;;;;;;;6.53;3.70;;;;;;;;;;5042170;28;20382;-70
2022/03/14 04:11:13;;;;;;;5.90;3.67;;;;;;;;;;5024976;28;20046;-71
2022/03/14 04:13:39;;;;;;;7.40;3.92;;;;;;;;;;5043651;28;20512;-71
2022/03/14 04:16:05;;;;;;;7.22;3.65;;;;;;;;;;5026000;28;20068;-71
2022/03/14 04:18:32;;;;;;;7.30;3.15;;;;;;;;;;5044215;28;20045;-72
2022/03/14 04:20:58;;;;;;;9.63;3.88;;;;;;;;;;5045234;28;20083;-71
2022/03/14 04:23:25;;;;;;;6.72;4.57;;;;;;;;;;5042403;28;20116;-71
2022/03/14 04:25:51;;;;;;;12.65;4.90;;;;;;;;;;5041702;28;20130;-71
2022/03/14 04:28:17;;;;;;;9.13;5.03;;;;;;;;;;5028879;28;20053;-71
2022/03/14 04:30:43;;;;;;;6.68;4.57;;;;;;;;;;5029929;28;20106;-71
2022/03/14 04:33:09;;;;;;;6.82;4.65;;;;;;;;;;5029625;28;20132;-71
2022/03/14 04:35:38;;;;;;;18.20;5.25;;;;;;;;;;5026274;28;20107;-71
2022/03/14 04:38:07;;;;;;;9.30;4.43;;;;;;;;;;5047381;28;20045;-71
2022/03/14 04:40:33;;;;;;;12.35;5.00;;;;;;;;;;5046489;28;20053;-71
2022/03/14 04:43:03;;;;;;;19.95;5.97;;;;;;;;;;5029214;28;20053;-71
2022/03/14 04:45:29;;;;;;;11.70;4.93;;;;;;;;;;5015022;28;20105;-71
2022/03/14 04:47:55;;;;;;;19.00;5.95;;;;;;;;;;5032301;28;20052;-71
2022/03/14 04:50:21;;;;;;;13.25;4.65;;;;;;;;;;5045328;28;20046;-71
2022/03/14 04:52:47;;;;;;;11.98;5.05;;;;;;;;;;5042755;28;20492;-72
2022/03/14 04:55:13;;;;;;;10.63;4.63;;;;;;;;;;5024759;28;20099;-71
2022/03/14 04:57:39;;;;;;;11.05;4.85;;;;;;;;;;5027056;28;20041;-72
2022/03/14 05:00:08;;;;;;;13.35;5.10;;;;;;;;;;5025199;28;20371;-71
2022/03/14 05:02:34;;;;;;;7.00;4.03;;;;;;;;;;5042520;28;20053;-71
2022/03/14 05:05:00;;;;;;;15.48;5.40;;;;;;;;;;5026181;28;20099;-71
2022/03/14 05:07:26;;;;;;;9.60;4.80;;;;;;;;;;5027036;28;20052;-71
2022/03/14 05:09:52;;;;;;;6.10;4.13;;;;;;;;;;5046130;28;20045;-71
2022/03/14 05:12:19;;;;;;;11.02;4.32;;;;;;;;;;5028825;28;20048;-71
2022/03/14 05:14:45;;;;;;;4.55;3.60;;;;;;;;;;5044243;28;20041;-72
2022/03/14 05:17:11;;;;;;;8.63;4.43;;;;;;;;;;5043438;28;20044;-72
2022/03/14 05:19:37;;;;;;;6.15;4.00;;;;;;;;;;5044437;28;20049;-72
2022/03/14 05:22:03;;;;;;;18.65;5.68;;;;;;;;;;5042363;28;20049;-72
2022/03/14 05:24:30;;;;;;;11.95;4.93;;;;;;;;;;5040675;28;20121;-71
2022/03/14 05:26:58;;;;;;;9.18;4.72;;;;;;;;;;5040114;28;20060;-72
2022/03/14 05:29:24;;;;;;;10.93;4.45;;;;;;;;;;5038271;28;20129;-72
2022/03/14 05:31:50;;;;;;;5.72;4.20;;;;;;;;;;5039434;28;20041;-71
2022/03/14 05:34:16;;;;;;;6.18;4.03;;;;;;;;;;5020977;28;20052;-71
2022/03/14 05:36:42;;;;;;;12.35;4.95;;;;;;;;;;5039198;28;20084;-71
2022/03/14 05:39:09;;;;;;;9.10;4.63;;;;;;;;;;5021320;28;20049;-71
2022/03/14 05:41:35;;;;;;;10.68;4.63;;;;;;;;;;5040188;28;20085;-72
2022/03/14 05:44:02;;;;;;;10.45;4.55;;;;;;;;;;5040503;28;20041;-71
2022/03/14 05:46:28;;;;;;;8.35;4.40;;;;;;;;;;5039175;28;20053;-72
2022/03/14 05:48:54;;;;;;;5.78;4.45;;;;;;;;;;5021127;28;20530;-72
2022/03/14 05:51:20;;;;;;;6.38;4.43;;;;;;;;;;5038035;28;20045;-72
2022/03/14 05:53:46;;;;;;;19.75;6.47;;;;;;;;;;5038150;28;20086;-72
2022/03/14 05:56:12;;;;;;;15.65;5.63;;;;;;;;;;5022268;28;20053;-72
2022/03/14 05:58:38;;;;;;;6.03;4.47;;;;;;;;;;5042039;28;20077;-72
2022/03/14 06:01:04;;;;;;;8.45;4.65;;;;;;;;;;5024749;28;20045;-72
2022/03/14 06:03:30;;;;;;;16.58;6.10;;;;;;;;;;5042276;28;20049;-72
2022/03/14 06:05:56;;;;;;;15.25;5.57;;;;;;;;;;5046287;28;20041;-72
2022/03/14 06:08:22;;;;;;;6.97;5.05;;;;;;;;;;5029307;28;20060;-72
2022/03/14 06:10:48;;;;;;;12.63;4.88;;;;;;;;;;5029925;28;20119;-72
2022/03/14 06:13:14;;;;;;;18.88;6.28;;;;;;;;;;5047893;28;20050;-73
2022/03/14 06:15:41;;;;;;;14.00;6.07;;;;;;;;;;5044622;28;20041;-72
2022/03/14 06:18:07;;;;;;;18.70;7.30;;;;;;;;;;5043373;28;20046;-72
2022/03/14 06:20:34;;;;;;;21.45;7.78;;;;;;;;;;5042269;28;20049;-72
2022/03/14 06:23:00;;;;;;;8.63;6.10;;;;;;;;;;5021442;28;20045;-72
2022/03/14 06:25:26;;;;;;;12.93;6.43;;;;;;;;;;5038964;28;20053;-72
2022/03/14 06:27:52;;;;;;;14.43;6.25;;;;;;;;;;5037869;28;20044;-72
2022/03/14 06:30:19;;;;;;;12.63;5.85;;;;;;;;;;5021232;28;20037;-72
2022/03/14 06:32:47;;;;;;;14.45;6.68;;;;;;;;;;5020567;28;20049;-72
2022/03/14 06:35:14;;;;;;;9.25;5.65;;;;;;;;;;5036576;28;20147;-73
2022/03/14 06:37:40;;;;;;;37.80;9.43;;;;;;;;;;5019531;28;20053;-73
2022/03/14 06:40:06;;;;;;;10.73;5.55;;;;;;;;;;5036337;28;20515;-72
2022/03/14 06:42:41;;;;;;;12.40;6.90;;;;;;;;;;5035527;28;20489;-72
2022/03/14 06:45:08;;;;;;;8.30;5.57;;;;;;;;;;5035916;28;20080;-72
2022/03/14 06:47:34;;;;;;;13.43;6.47;;;;;;;;;;5034736;28;20041;-72
2022/03/14 06:50:01;;;;;;;12.23;6.40;;;;;;;;;;5034312;28;20049;-72
2022/03/14 06:52:27;;;;;;;22.77;8.80;;;;;;;;;;5035484;28;20049;-72
2022/03/14 06:54:53;;;;;;;13.45;6.93;;;;;;;;;;5017978;28;20506;-73
2022/03/14 06:57:19;;;;;;;10.80;6.63;;;;;;;;;;5035773;28;20048;-71
2022/03/14 06:59:45;;;;;;;12.52;6.72;;;;;;;;;;5036561;28;20045;-72
2022/03/14 07:02:11;;;;;;;11.88;7.03;;;;;;;;;;5036252;28;20046;-71
2022/03/14 07:04:37;;;;;;;40.30;12.48;;;;;;;;;;5035223;28;20052;-71
2022/03/14 07:07:04;;;;;;;37.75;11.38;;;;;;;;;;5035006;28;20179;-71
2022/03/14 07:09:31;;;;;;;19.65;8.48;;;;;;;;;;5000699;28;20048;-71
2022/03/14 07:11:57;;;;;;;18.20;8.70;;;;;;;;;;5035934;28;20049;-71
2022/03/14 07:14:23;;;;;;;67.35;16.15;;;;;;;;;;5018664;28;20057;-72
2022/03/14 07:16:50;;;;;;;63.10;18.00;;;;;;;;;;5035398;28;20045;-72
2022/03/14 07:19:16;;;;;;;26.35;11.10;;;;;;;;;;5035426;28;20381;-72
2022/03/14 07:21:42;;;;;;;13.13;7.68;;;;;;;;;;5034047;28;20038;-72
2022/03/14 07:24:08;;;;;;;24.08;9.65;;;;;;;;;;5034768;28;20042;-72
2022/03/14 07:26:34;;;;;;;53.47;15.38;;;;;;;;;;4999983;28;20053;-72
2022/03/14 07:29:01;;;;;;;31.25;10.52;;;;;;;;;;5034500;28;20401;-72
2022/03/14 07:31:27;;;;;;;27.98;10.05;;;;;;;;;;5034297;28;20060;-72
2022/03/14 07:33:53;;;;;;;33.92;11.35;;;;;;;;;;5034969;28;20101;-72
2022/03/14 07:36:19;;;;;;;16.80;9.18;;;;;;;;;;5035558;28;20121;-72
2022/03/14 07:38:45;;;;;;;16.10;9.38;;;;;;;;;;5035138;28;20143;-72
2022/03/14 07:41:12;;;;;;;18.38;10.23;;;;;;;;;;5017535;28;20126;-72
2022/03/14 07:43:38;;;;;;;25.73;9.80;;;;;;;;;;5036633;28;20038;-72
2022/03/14 07:46:04;;;;;;;63.55;15.93;;;;;;;;;;5017868;28;20060;-72
2022/03/14 07:48:30;;;;;;;21.17;9.50;;;;;;;;;;5034634;28;20060;-73
2022/03/14 07:50:56;;;;;;;19.77;9.93;;;;;;;;;;5034287;28;20512;-72
2022/03/14 07:53:22;;;;;;;18.33;9.63;;;;;;;;;;5016731;28;20046;-73
2022/03/14 07:55:48;;;;;;;21.60;11.32;;;;;;;;;;5034346;28;20057;-73
2022/03/14 07:58:15;;;;;;;18.52;9.95;;;;;;;;;;5035248;28;20056;-72
2022/03/14 08:00:41;;;;;;;24.33;11.60;;;;;;;;;;5035695;28;20046;-73
2022/03/14 08:03:07;;;;;;;29.88;13.05;;;;;;;;;;5039232;28;20480;-72
2022/03/14 08:05:33;;;;;;;23.13;11.50;;;;;;;;;;5038080;28;20049;-72
2022/03/14 08:08:00;;;;;;;21.10;10.85;;;;;;;;;;5037615;28;20132;-72
2022/03/14 08:10:26;;;;;;;17.63;10.55;;;;;;;;;;5037654;28;20563;-72
2022/03/14 08:12:54;;;;;;;60.97;17.30;;;;;;;;;;5036781;28;20497;-73
2022/03/14 08:15:20;;;;;;;38.78;14.45;;;;;;;;;;5021387;28;20045;-72
2022/03/14 08:17:46;;;;;;;19.92;11.90;;;;;;;;;;5038421;28;20132;-73
2022/03/14 08:20:12;;;;;;;24.55;12.32;;;;;;;;;;5038389;28;20056;-73
2022/03/14 08:22:39;;;;;;;28.17;11.93;;;;;;;;;;5020424;28;20064;-74
2022/03/14 08:25:05;;;;;;;29.85;12.15;;;;;;;;;;5037674;28;20481;-72
2022/03/14 08:27:31;;;;;;;17.45;10.73;;;;;;;;;;5038742;28;20057;-73
2022/03/14 08:29:58;;;;;;;18.90;10.32;;;;;;;;;;5038105;28;20181;-73
2022/03/14 08:32:24;;;;;;;25.25;12.48;;;;;;;;;;5035966;28;20102;-73
2022/03/14 08:34:53;;;;;;;27.95;11.70;;;;;;;;;;5037469;28;20045;-73
2022/03/14 08:37:19;;;;;;;32.80;13.95;;;;;;;;;;5037016;28;20054;-73
2022/03/14 08:39:46;;;;;;;27.02;11.85;;;;;;;;;;5037307;28;20580;-73
2022/03/14 08:42:12;;;;;;;28.90;12.65;;;;;;;;;;5038247;28;20049;-73
2022/03/14 08:44:38;;;;;;;17.10;11.52;;;;;;;;;;5036780;28;20587;-73
2022/03/14 08:47:05;;;;;;;57.15;16.30;;;;;;;;;;5036494;28;20042;-73
2022/03/14 08:49:31;;;;;;;22.95;12.88;;;;;;;;;;5036484;28;20042;-73
2022/03/14 08:51:56;;;;;;;16.15;11.40;;;;;;;;;;5036178;28;20037;-73
2022/03/14 08:54:22;;;;;;;20.27;10.55;;;;;;;;;;5018552;28;20041;-73
2022/03/14 08:56:48;;;;;;;16.75;10.85;;;;;;;;;;5036375;28;20073;-72
2022/03/14 08:59:14;;;;;;;16.75;12.25;;;;;;;;;;5035995;28;20042;-74
2022/03/14 09:01:42;;;;;;;44.17;14.70;;;;;;;;;;5002252;28;20049;-73
2022/03/14 09:04:07;;;;;;;19.10;12.18;;;;;;;;;;5036179;28;20401;-73
2022/03/14 09:06:36;;;;;;;34.88;13.35;;;;;;;;;;5034519;28;20102;-73
2022/03/14 09:09:02;;;;;;;;;;;;;;;;;;5018474;28;20493;-72
2022/03/14 09:11:28;;;;;;;17.13;11.73;;;;;;;;;;5035776;28;20015;-73
2022/03/14 09:13:54;;;;;;;23.83;12.00;;;;;;;;;;5016788;28;20187;-72
2022/03/14 09:16:20;;;;;;;18.80;10.60;;;;;;;;;;5035669;28;20117;-72
2022/03/14 09:18:47;;;;;;;19.60;12.40;;;;;;;;;;5018267;28;20048;-72
2022/03/14 09:21:14;;;;;;;16.40;11.30;;;;;;;;;;5035650;28;20151;-73
2022/03/14 09:23:42;;;;;;;19.35;11.82;;;;;;;;;;5036239;28;20056;-73
2022/03/14 09:26:08;;;;;;;19.77;11.50;;;;;;;;;;5035673;28;20041;-73
2022/03/14 09:28:36;;;;;;;24.80;12.98;;;;;;;;;;5035811;28;20037;-74
2022/03/14 09:31:02;;;;;;;22.80;12.85;;;;;;;;;;5035581;28;20050;-74
2022/03/14 09:33:28;;;;;;;23.25;13.65;;;;;;;;;;5035662;28;20064;-74
2022/03/14 09:35:54;;;;;;;21.67;14.20;;;;;;;;;;5036033;28;20488;-74
2022/03/14 09:38:20;;;;;;;27.85;14.73;;;;;;;;;;5018754;28;20057;-74
2022/03/14 09:40:47;;;;;;;27.02;16.00;;;;;;;;;;5036920;28;20056;-74
2022/03/14 09:43:18;;;;;;;27.15;15.10;;;;;;;;;;5035470;28;20179;-74
2022/03/14 09:45:50;;;;;;;30.80;16.98;;;;;;;;;;5036562;28;20096;-75
2022/03/14 09:48:17;;;;;;;34.55;18.85;;;;;;;;;;5034432;28;20056;-74
2022/03/14 09:50:44;;;;;;;34.03;17.25;;;;;;;;;;5035820;28;20058;-74
2022/03/14 09:53:13;;;;;;;29.10;17.10;;;;;;;;;;5037002;28;20497;-73
2022/03/14 09:55:43;;;;;;;27.85;15.18;;;;;;;;;;5020707;28;20497;-74
2022/03/14 09:58:13;;;;;;;27.05;14.60;;;;;;;;;;5039248;28;20473;-74
2022/03/14 10:00:40;;;;;;;18.45;11.05;;;;;;;;;;5021899;28;20045;-74
2022/03/14 10:03:06;;;;;;;18.88;11.02;;;;;;;;;;5038881;28;20045;-74
2022/03/14 10:05:32;;;;;;;18.50;9.68;;;;;;;;;;5037624;28;20080;-75
2022/03/14 10:07:59;;;;;;;20.25;10.35;;;;;;;;;;5036492;28;20056;-74
2022/03/14 10:10:25;;;;;;;19.98;10.55;;;;;;;;;;5037322;28;20053;-74
2022/03/14 10:12:57;;;;;;;20.42;10.25;;;;;;;;;;5037923;28;20071;-73
2022/03/14 10:15:25;;;;;;;19.70;11.02;;;;;;;;;;5037211;28;20461;-75
2022/03/14 10:17:51;;;;;;;18.77;10.35;;;;;;;;;;5039247;28;20056;-74
2022/03/14 10:20:18;;;;;;;23.52;10.48;;;;;;;;;;5036833;28;20382;-75
2022/03/14 10:22:44;;;;;;;19.83;11.00;;;;;;;;;;5038441;28;20051;-74
2022/03/14 10:25:13;;;;;;;20.92;11.10;;;;;;;;;;5039283;28;20045;-73
2022/03/14 10:27:39;;;;;;;25.25;12.35;;;;;;;;;;5021970;28;20108;-73
2022/03/14 10:30:07;;;;;;;25.17;13.00;;;;;;;;;;5023413;28;20056;-73
2022/03/14 10:32:35;;;;;;;25.33;12.90;;;;;;;;;;5042143;28;20132;-73
2022/03/14 10:35:04;;;;;;;23.17;12.30;;;;;;;;;;5019815;28;20056;-73
2022/03/14 10:37:31;;;;;;;27.17;13.70;;;;;;;;;;5038071;28;20416;-74
2022/03/14 10:40:01;;;;;;;26.77;14.57;;;;;;;;;;5037990;28;20095;-74
2022/03/14 10:42:27;;;;;;;30.73;15.35;;;;;;;;;;5036961;28;20045;-73
2022/03/14 10:44:54;;;;;;;29.13;15.27;;;;;;;;;;5035286;28;20098;-74
2022/03/14 10:47:21;;;;;;;34.83;15.43;;;;;;;;;;5036743;28;20042;-74
2022/03/14 10:49:47;;;;;;;30.70;14.70;;;;;;;;;;5035514;28;20077;-74
2022/03/14 10:52:14;;;;;;;30.52;16.50;;;;;;;;;;5036693;28;20500;-74
2022/03/14 10:54:41;;;;;;;30.10;15.93;;;;;;;;;;5036480;28;20077;-73
2022/03/14 10:57:16;;;;;;;32.28;15.60;;;;;;;;;;5037729;28;20081;-73
2022/03/14 10:59:44;;;;;;;34.40;15.45;;;;;;;;;;5037247;28;20053;-74
2022/03/14 11:02:14;;;;;;;36.30;16.00;;;;;;;;;;5036152;28;20052;-72
2022/03/14 11:04:48;;;;;;;34.28;16.05;;;;;;;;;;5042760;28;20148;-73
2022/03/14 11:07:15;;;;;;;27.38;13.80;;;;;;;;;;5042172;28;20137;-72
2022/03/14 11:09:48;;;;;;;29.33;14.55;;;;;;;;;;5041283;28;20464;-72
2022/03/14 11:12:18;;;;;;;32.30;14.90;;;;;;;;;;5002053;28;20050;-72
2022/03/14 11:14:56;;;;;;;26.92;13.40;;;;;;;;;;5040667;28;20048;-73
2022/03/14 11:17:24;;;;;;;31.45;12.98;;;;;;;;;;5045807;28;20497;-73
2022/03/14 11:19:50;;;;;;;33.75;13.38;;;;;;;;;;5043236;28;20458;-72
2022/03/14 11:22:17;;;;;;;22.80;11.60;;;;;;;;;;5045543;28;20133;-72
2022/03/14 11:24:48;;;;;;;22.45;10.77;;;;;;;;;;5046602;28;20449;-72
2022/03/14 11:27:24;;;;;;;21.60;10.30;;;;;;;;;;5040698;28;20042;-72
2022/03/14 11:29:53;;;;;;;18.35;9.27;;;;;;;;;;5038599;28;20481;-72
2022/03/14 11:32:19;;;;;;;14.77;8.13;;;;;;;;;;5041642;28;20039;-72
2022/03/14 11:34:49;;;;;;;29.88;11.10;;;;;;;;;;5046207;28;20120;-72
2022/03/14 11:37:16;;;;;;;32.72;10.23;;;;;;;;;;5049450;28;20061;-72
2022/03/14 11:39:43;;;;;;;18.42;7.88;;;;;;;;;;5050650;28;20425;-72
2022/03/14 11:42:11;;;;;;;17.58;7.75;;;;;;;;;;5032843;28;20080;-72
2022/03/14 11:44:38;;;;;;;16.88;7.75;;;;;;;;;;5027745;28;20118;-73
2022/03/14 11:47:04;;;;;;;23.60;8.00;;;;;;;;;;5030382;28;20045;-72
2022/03/14 11:49:31;;;;;;;14.90;7.38;;;;;;;;;;5043458;28;20103;-73
2022/03/14 11:52:08;;;;;;;15.55;7.13;;;;;;;;;;5046598;28;20069;-73
2022/03/14 11:54:43;;;;;;;17.50;7.25;;;;;;;;;;5049405;28;20060;-73
2022/03/14 11:57:10;;;;;;;16.73;6.53;;;;;;;;;;5053919;28;20052;-73
2022/03/14 11:59:36;;;;;;;15.85;5.75;;;;;;;;;;5054018;28;20109;-72
2022/03/14 12:02:05;;;;;;;14.70;5.88;;;;;;;;;;5051547;28;20042;-73
2022/03/14 12:04:35;;;;;;;9.85;5.05;;;;;;;;;;5048157;28;20053;-72
2022/03/14 12:07:05;;;;;;;16.08;5.25;;;;;;;;;;5013667;28;20045;-72
2022/03/14 12:09:33;;;;;;;18.50;5.10;;;;;;;;;;5052732;28;20049;-72
2022/03/14 12:12:01;;;;;;;19.27;6.20;;;;;;;;;;5054426;28;20076;-72
2022/03/14 12:14:47;;;;;;;14.20;5.68;;;;;;;;;;5053256;28;20052;-72
2022/03/14 12:17:13;;;;;;;15.10;5.68;;;;;;;;;;5037708;28;20421;-72
2022/03/14 12:19:42;;;;;;;11.98;5.60;;;;;;;;;;5035250;28;20041;-72
2022/03/14 12:22:10;;;;;;;;;;;;;;;;;;5019178;28;20041;-72
2022/03/14 12:24:36;;;;;;;15.73;6.83;;;;;;;;;;5052641;28;19924;-72
2022/03/14 12:27:03;;;;;;;19.98;6.88;;;;;;;;;;5050608;28;20076;-72
2022/03/14 12:29:36;;;;;;;21.95;7.72;;;;;;;;;;5051900;28;20073;-72
2022/03/14 12:32:21;;;;;;;16.27;8.10;;;;;;;;;;5051460;28;20057;-73
2022/03/14 12:35:01;;;;;;;20.25;9.05;;;;;;;;;;5050683;28;20037;-72
2022/03/14 12:37:41;;;;;;;32.53;11.60;;;;;;;;;;5045150;28;20155;-73
2022/03/14 12:40:15;;;;;;;18.85;9.02;;;;;;;;;;5018370;28;20068;-72
2022/03/14 12:42:45;;;;;;;24.27;10.75;;;;;;;;;;5050502;28;20045;-72
2022/03/14 12:45:17;;;;;;;20.52;10.75;;;;;;;;;;5051376;28;20065;-72
2022/03/14 12:47:49;;;;;;;22.30;11.45;;;;;;;;;;5048798;28;20109;-72
2022/03/14 12:50:35;;;;;;;22.20;12.25;;;;;;;;;;5033697;28;20041;-71
2022/03/14 12:53:01;;;;;;;20.65;11.88;;;;;;;;;;5048655;28;20052;-71
2022/03/14 12:55:27;;;;;;;25.95;12.43;;;;;;;;;;5052794;28;20045;-72
2022/03/14 12:57:54;;;;;;;20.50;12.25;;;;;;;;;;5056379;28;20045;-72
2022/03/14 13:00:20;;;;;;;21.90;12.50;;;;;;;;;;5054012;28;20041;-72
2022/03/14 13:02:47;;;;;;;26.17;13.23;;;;;;;;;;5031574;28;20050;-72
2022/03/14 13:05:18;;;;;;;23.83;14.02;;;;;;;;;;5052203;28;20029;-72
2022/03/14 13:07:44;;;;;;;22.40;13.90;;;;;;;;;;5053944;28;20057;-72
2022/03/14 13:10:10;;;;;;;24.85;14.77;;;;;;;;;;5053139;28;20052;-72
2022/03/14 13:12:36;;;;;;;24.67;13.68;;;;;;;;;;5051362;28;20041;-72
2022/03/14 13:15:06;;;;;;;21.40;13.70;;;;;;;;;;5048217;28;20068;-71
2022/03/14 13:17:32;;;;;;;19.58;13.23;;;;;;;;;;5045271;28;20105;-72
2022/03/14 13:19:58;;;;;;;26.90;14.80;;;;;;;;;;5049481;28;20041;-71
2022/03/14 13:22:24;;;;;;;24.65;14.60;;;;;;;;;;5047108;28;20069;-72
2022/03/14 13:24:50;;;;;;;22.83;13.13;;;;;;;;;;5053594;28;20050;-73
2022/03/14 13:27:24;;;;;;;23.58;14.05;;;;;;;;;;5054222;28;20041;-72
2022/03/14 13:29:50;;;;;;;22.42;13.82;;;;;;;;;;5052380;28;20068;-72
2022/03/14 13:32:18;;;;;;;30.27;13.95;;;;;;;;;;5030157;28;20046;-72
2022/03/14 13:34:45;;;;;;;19.95;11.93;;;;;;;;;;5029124;28;20408;-72
2022/03/14 13:37:11;;;;;;;19.83;11.45;;;;;;;;;;5049429;28;20046;-71
2022/03/14 13:39:37;;;;;;;19.95;11.50;;;;;;;;;;5049036;28;20124;-72
2022/03/14 13:42:05;;;;;;;23.15;11.85;;;;;;;;;;5050753;28;20045;-72
2022/03/14 13:44:31;;;;;;;22.92;12.35;;;;;;;;;;5050644;28;20089;-71
2022/03/14 13:46:58;;;;;;;18.15;10.73;;;;;;;;;;5027452;28;20041;-72
2022/03/14 13:49:27;;;;;;;20.85;10.85;;;;;;;;;;5047314;28;20076;-72
2022/03/14 13:51:57;;;;;;;19.67;10.55;;;;;;;;;;5046831;28;20053;-71
2022/03/14 13:54:24;;;;;;;22.35;11.05;;;;;;;;;;5046820;28;20083;-72
2022/03/14 13:56:52;;;;;;;20.80;10.25;;;;;;;;;;5042595;28;20038;-72
2022/03/14 13:59:32;;;;;;;28.17;11.13;;;;;;;;;;5045058;28;20102;-72
2022/03/14 14:02:05;;;;;;;19.48;9.95;;;;;;;;;;5041143;28;20037;-72
2022/03/14 14:04:33;;;;;;;15.63;8.57;;;;;;;;;;5024767;28;20405;-72
2022/03/14 14:06:59;;;;;;;16.88;9.95;;;;;;;;;;5042799;28;20042;-72
2022/03/14 14:09:26;;;;;;;27.63;9.98;;;;;;;;;;5040278;28;20115;-72
2022/03/14 14:12:03;;;;;;;21.35;9.65;;;;;;;;;;5044159;28;20045;-72
2022/03/14 14:14:30;;;;;;;18.23;9.18;;;;;;;;;;5024261;28;20111;-72
2022/03/14 14:17:16;;;;;;;22.38;10.25;;;;;;;;;;5042025;28;20037;-72
2022/03/14 14:20:02;;;;;;;17.30;9.20;;;;;;;;;;5048116;28;20052;-72
2022/03/14 14:22:35;;;;;;;16.08;8.95;;;;;;;;;;5042069;28;20046;-72
2022/03/14 14:25:02;;;;;;;23.27;9.13;;;;;;;;;;5045505;28;20109;-72
2022/03/14 14:27:28;;;;;;;19.60;8.25;;;;;;;;;;5028311;28;20041;-72
2022/03/14 14:29:55;;;;;;;20.63;9.18;;;;;;;;;;5044748;28;20128;-72